Concordia, Kansas
Current Conditions -  °F | °C
As of 2:55 PM on Tuesday 21 Oct 2014 (Local Time) from KCNK Reporting Station
Clear Clear  
Wind Chill: 76°   Ceiling: Unl
Heat Index: 76°   Visibility: 10mi
Dew Point: 52°   Wind: 13mph
Humidity: 43%   Direction: 160°SSE
Pressure: 30.03"   Gusts: NA
Location:  39.57°N, 97.66°W
Report Text: KCNK 211955Z AUTO 16011KT 10SM CLR 24/11 A3003 RMK AO2 SLP161 T02440111
Loading
Personal Weather Stations






























Interactive Weather Map
Tropical Storm Tracking
New forecast layout! Learn more

10-Day Weather Forecast

Advertisements
Track Severe Weather on mobile